Time;durP1;ratioP1;P1;durP2;ratioP2;P2;SDS_P1;SDS_P2;PMS_P1;PMS_P2;Temp;Humidity;BMP_temperature;BMP_pressure;BME280_temperature;BME280_humidity;BME280_pressure;Samples;Min_cycle;Max_cycle;Signal;HPM_P1;HPM_P2
2021/04/21 00:00:12;;;;;;;115.50;60.40;;;12.00;99.90;;;;;;4973629;28;20194;-80
2021/04/21 00:02:40;;;;;;;105.13;57.30;;;12.00;99.90;;;;;;4989625;28;20264;-80
2021/04/21 00:05:07;;;;;;;111.70;59.97;;;12.00;99.90;;;;;;4975119;28;20668;-80
2021/04/21 00:07:35;;;;;;;111.77;59.50;;;12.00;99.90;;;;;;4987752;28;20639;-80
2021/04/21 00:10:03;;;;;;;108.50;57.97;;;12.10;99.90;;;;;;4974815;28;20211;-79
2021/04/21 00:12:30;;;;;;;107.13;55.23;;;12.00;99.90;;;;;;4973233;28;20354;-80
2021/04/21 00:14:56;;;;;;;99.90;54.47;;;11.90;99.90;;;;;;4972274;28;20184;-80
2021/04/21 00:17:24;;;;;;;104.60;55.97;;;11.90;99.90;;;;;;4973478;28;20192;-80
2021/04/21 00:19:52;;;;;;;104.60;56.83;;;11.80;99.90;;;;;;4973635;28;20286;-79
2021/04/21 00:22:19;;;;;;;105.27;56.27;;;11.90;99.90;;;;;;4988668;28;20185;-80
2021/04/21 00:24:47;;;;;;;95.63;52.90;;;11.90;99.90;;;;;;4973345;28;20180;-80
2021/04/21 00:27:21;;;;;;;101.50;55.33;;;11.90;99.90;;;;;;5005491;28;20244;-80
2021/04/21 00:29:51;;;;;;;98.37;53.97;;;11.90;99.90;;;;;;4972786;28;20226;-80
2021/04/21 00:32:18;;;;;;;96.07;52.73;;;12.00;99.90;;;;;;4974776;28;20176;-80
2021/04/21 00:34:46;;;;;;;98.80;53.90;;;12.00;99.90;;;;;;4989296;28;21755;-80
2021/04/21 00:37:13;;;;;;;96.20;52.40;;;12.10;99.90;;;;;;4973545;28;20198;-79
2021/04/21 00:39:43;;;;;;;98.23;53.03;;;11.90;99.90;;;;;;4971985;28;20557;-79
2021/04/21 00:42:28;;;;;;;97.90;53.63;;;11.80;99.90;;;;;;4972835;28;20197;-79
2021/04/21 00:45:10;;;;;;;100.87;52.70;;;11.70;99.90;;;;;;5004854;28;20232;-79
2021/04/21 00:47:58;;;;;;;98.33;54.43;;;11.70;99.90;;;;;;5002954;28;20218;-79
2021/04/21 00:50:38;;;;;;;106.30;54.73;;;11.70;99.90;;;;;;4987997;28;20930;-81
2021/04/21 00:53:09;;;;;;;101.17;54.83;;;11.70;99.90;;;;;;4973324;28;20515;-80
2021/04/21 00:55:39;;;;;;;102.33;54.40;;;11.80;99.90;;;;;;4986620;28;20180;-80
2021/04/21 00:58:21;;;;;;;103.30;55.53;;;11.70;99.90;;;;;;5006945;28;20266;-79
2021/04/21 01:00:48;;;;;;;106.90;56.63;;;11.70;99.90;;;;;;5003054;28;20223;-78
2021/04/21 01:03:25;;;;;;;109.83;57.73;;;11.70;99.90;;;;;;5004427;28;20191;-78
2021/04/21 01:06:16;;;;;;;113.83;59.93;;;11.60;99.90;;;;;;4973181;28;20179;-78
2021/04/21 01:08:51;;;;;;;121.37;61.57;;;11.80;99.90;;;;;;4970646;28;20206;-80
2021/04/21 01:11:32;;;;;;;115.70;59.67;;;11.80;99.90;;;;;;4979236;28;20207;-79
2021/04/21 01:14:15;;;;;;;113.60;59.37;;;11.60;99.90;;;;;;5003648;28;21029;-79
2021/04/21 01:16:42;;;;;;;113.00;58.23;;;11.40;99.90;;;;;;5015046;28;20172;-79
2021/04/21 01:19:23;;;;;;;124.50;61.53;;;11.40;99.90;;;;;;4971756;28;20553;-79
2021/04/21 01:21:56;;;;;;;118.47;59.77;;;11.30;99.90;;;;;;4973654;28;20181;-79
2021/04/21 01:24:45;;;;;;;114.40;59.30;;;11.40;99.90;;;;;;5003608;28;20735;-79
2021/04/21 01:27:17;;;;;;;128.10;62.53;;;11.40;99.90;;;;;;4989094;28;20262;-79
2021/04/21 01:29:47;;;;;;;121.43;62.20;;;11.30;99.90;;;;;;4973109;28;20224;-79
2021/04/21 01:32:18;;;;;;;138.43;65.93;;;11.20;99.90;;;;;;4972238;28;20242;-79
2021/04/21 01:34:46;;;;;;;130.10;66.27;;;11.20;99.90;;;;;;4972002;28;20235;-79
2021/04/21 01:37:16;;;;;;;142.33;69.67;;;11.30;99.90;;;;;;4971858;28;20678;-78
2021/04/21 01:39:50;;;;;;;136.37;67.37;;;11.40;99.90;;;;;;4985343;28;20548;-79
2021/04/21 01:42:17;;;;;;;141.23;69.07;;;11.30;99.90;;;;;;5003019;28;20218;-79
2021/04/21 01:44:46;;;;;;;136.17;68.23;;;11.30;99.90;;;;;;4973087;28;20555;-78
2021/04/21 01:47:20;;;;;;;136.27;67.83;;;11.20;99.90;;;;;;4972835;28;20198;-79
2021/04/21 01:50:05;;;;;;;138.47;68.30;;;11.20;99.90;;;;;;4971854;28;20219;-79
2021/04/21 01:52:54;;;;;;;138.57;66.63;;;11.30;99.90;;;;;;4999052;28;20187;-78
2021/04/21 01:55:20;;;;;;;133.87;63.33;;;11.30;99.90;;;;;;4973237;28;20556;-80
2021/04/21 01:58:13;;;;;;;129.80;62.83;;;11.20;99.90;;;;;;4972820;28;20180;-78
2021/04/21 02:00:44;;;;;;;124.57;61.80;;;11.00;99.90;;;;;;5001179;28;20281;-78
2021/04/21 02:03:27;;;;;;;117.97;61.40;;;11.00;99.90;;;;;;4989768;28;20188;-79
2021/04/21 02:05:55;;;;;;;121.93;62.03;;;10.90;99.90;;;;;;4974671;28;20204;-79
2021/04/21 02:08:45;;;;;;;125.53;60.67;;;10.90;99.90;;;;;;4958529;28;20563;-79
2021/04/21 02:11:17;;;;;;;113.70;58.47;;;10.90;99.90;;;;;;4976029;28;20301;-78
2021/04/21 02:14:11;;;;;;;116.53;57.90;;;10.90;99.90;;;;;;4991450;28;21956;-80
2021/04/21 02:16:46;;;;;;;114.33;57.57;;;10.80;99.90;;;;;;4973228;28;20194;-80
2021/04/21 02:19:30;;;;;;;115.00;58.90;;;10.80;99.90;;;;;;5007885;28;20178;-80
2021/04/21 02:22:26;;;;;;;118.13;60.47;;;10.90;99.90;;;;;;4998143;28;20286;-80
2021/04/21 02:24:52;;;;;;;121.73;62.37;;;10.80;99.90;;;;;;4974297;28;20192;-80
2021/04/21 02:27:42;;;;;;;121.57;60.60;;;10.80;99.90;;;;;;4976917;28;20628;-80
2021/04/21 02:30:13;;;;;;;132.83;62.47;;;10.70;99.90;;;;;;4971911;28;20203;-80
2021/04/21 02:33:16;;;;;;;119.37;61.13;;;10.80;99.90;;;;;;4976476;28;20183;-81
2021/04/21 02:35:52;;;;;;;119.30;59.27;;;10.80;99.90;;;;;;4974530;28;20650;-80
2021/04/21 02:38:50;;;;;;;119.33;60.23;;;10.80;99.90;;;;;;4975992;28;20517;-80
2021/04/21 02:41:36;;;;;;;135.07;63.60;;;10.70;99.90;;;;;;4975730;28;20536;-80
2021/04/21 02:44:31;;;;;;;136.87;65.33;;;10.90;99.90;;;;;;4975124;28;20179;-80
2021/04/21 02:47:03;;;;;;;136.73;64.63;;;11.00;99.90;;;;;;4975892;28;20551;-80
2021/04/21 02:49:48;;;;;;;139.40;67.43;;;11.10;99.90;;;;;;4975228;28;20181;-78
2021/04/21 02:52:33;;;;;;;143.07;66.03;;;11.10;99.90;;;;;;4985075;28;20230;-78
2021/04/21 02:55:35;;;;;;;134.23;64.23;;;11.10;99.90;;;;;;5006607;28;20229;-78
2021/04/21 02:58:04;;;;;;;133.30;63.23;;;11.00;99.90;;;;;;4972301;28;20559;-79
2021/04/21 03:00:41;;;;;;;131.43;64.33;;;11.00;99.90;;;;;;4989140;28;20187;-78
2021/04/21 03:03:19;;;;;;;134.03;64.33;;;11.00;99.90;;;;;;5005633;28;20187;-78
2021/04/21 03:05:57;;;;;;;125.13;63.63;;;11.00;99.90;;;;;;4973447;28;20192;-79
2021/04/21 03:08:29;;;;;;;129.57;64.13;;;11.00;99.90;;;;;;4974268;28;20186;-80
2021/04/21 03:11:15;;;;;;;132.90;63.87;;;11.10;99.90;;;;;;4975573;28;20210;-80
2021/04/21 03:13:56;;;;;;;133.87;65.00;;;11.20;99.90;;;;;;5006436;28;20650;-79
2021/04/21 03:16:23;;;;;;;128.87;61.57;;;11.30;99.90;;;;;;4972757;28;20391;-80
2021/04/21 03:18:50;;;;;;;131.50;64.37;;;11.20;99.90;;;;;;4974410;28;20254;-79
2021/04/21 03:21:19;;;;;;;133.10;64.17;;;11.20;99.90;;;;;;4975888;28;20184;-79
2021/04/21 03:23:47;;;;;;;128.07;63.40;;;11.20;99.90;;;;;;5004966;28;20181;-79
2021/04/21 03:26:17;;;;;;;120.53;61.40;;;11.30;99.90;;;;;;4992375;28;20190;-78
2021/04/21 03:28:48;;;;;;;122.77;61.90;;;11.20;99.90;;;;;;4974155;28;20217;-79
2021/04/21 03:31:16;;;;;;;123.23;61.77;;;11.30;99.90;;;;;;4973711;28;20588;-79
2021/04/21 03:33:57;;;;;;;128.67;63.40;;;11.30;99.90;;;;;;4975574;28;20213;-79
2021/04/21 03:36:24;;;;;;;122.17;61.00;;;11.30;99.90;;;;;;4973932;28;20192;-78
2021/04/21 03:38:50;;;;;;;127.07;63.27;;;11.30;99.90;;;;;;4975488;28;20271;-78
2021/04/21 03:41:16;;;;;;;119.57;60.73;;;11.30;99.90;;;;;;4975210;28;20183;-78
2021/04/21 03:43:42;;;;;;;123.33;61.63;;;11.40;99.90;;;;;;4974822;28;20179;-78
2021/04/21 03:46:11;;;;;;;123.80;60.00;;;11.50;99.90;;;;;;4974017;28;20222;-78
2021/04/21 03:48:38;;;;;;;120.20;61.37;;;11.50;99.90;;;;;;4974641;28;20215;-78
2021/04/21 03:51:06;;;;;;;122.43;61.23;;;11.50;99.90;;;;;;4990370;28;20220;-78
2021/04/21 03:53:37;;;;;;;124.07;62.00;;;11.50;99.90;;;;;;4973606;28;20187;-79
2021/04/21 03:56:06;;;;;;;120.93;60.83;;;11.50;99.90;;;;;;4974579;28;20657;-78
2021/04/21 03:58:33;;;;;;;119.40;60.37;;;11.50;99.90;;;;;;4980708;28;20207;-79
2021/04/21 04:01:06;;;;;;;122.10;61.37;;;11.40;99.90;;;;;;4972640;28;20283;-79
2021/04/21 04:03:33;;;;;;;123.60;60.33;;;11.50;99.90;;;;;;4974985;28;20650;-79
2021/04/21 04:06:08;;;;;;;121.57;59.57;;;11.50;99.90;;;;;;4973827;28;20659;-79
2021/04/21 04:08:53;;;;;;;119.13;59.53;;;11.50;99.90;;;;;;4991718;28;20218;-79
2021/04/21 04:11:32;;;;;;;119.23;58.93;;;11.60;99.90;;;;;;4973908;28;20651;-79
2021/04/21 04:14:16;;;;;;;114.50;58.37;;;11.60;99.90;;;;;;5004642;28;20230;-79
2021/04/21 04:16:44;;;;;;;111.00;57.50;;;11.70;99.90;;;;;;5010494;28;20190;-79
2021/04/21 04:19:11;;;;;;;106.80;54.60;;;11.40;99.90;;;;;;4972702;28;20659;-79
2021/04/21 04:21:38;;;;;;;107.17;56.33;;;11.20;99.90;;;;;;4974697;28;20194;-79
2021/04/21 04:24:10;;;;;;;112.30;56.60;;;11.30;99.90;;;;;;4974502;28;20246;-79
2021/04/21 04:26:40;;;;;;;111.37;55.37;;;11.30;99.90;;;;;;4988119;28;20311;-79
2021/04/21 04:29:06;;;;;;;114.90;60.47;;;11.30;99.90;;;;;;4989055;28;20171;-80
2021/04/21 04:31:35;;;;;;;125.53;60.47;;;11.40;99.90;;;;;;4989130;28;20599;-79
2021/04/21 04:34:04;;;;;;;131.63;63.13;;;11.50;99.90;;;;;;4984814;28;20223;-77
2021/04/21 04:36:33;;;;;;;132.63;62.57;;;11.70;99.90;;;;;;4972337;28;20180;-78
2021/04/21 04:39:01;;;;;;;144.93;65.40;;;11.80;99.90;;;;;;4973480;28;20197;-78
2021/04/21 04:41:29;;;;;;;140.60;66.03;;;11.90;99.90;;;;;;4972778;28;20192;-77
2021/04/21 04:43:56;;;;;;;137.90;63.63;;;11.90;99.90;;;;;;4972519;28;20287;-78
2021/04/21 04:46:27;;;;;;;139.87;64.17;;;11.80;99.90;;;;;;4971693;28;20203;-77
2021/04/21 04:49:08;;;;;;;130.33;61.83;;;11.80;99.90;;;;;;4972194;28;20196;-77
2021/04/21 04:51:37;;;;;;;131.23;62.47;;;11.80;99.90;;;;;;5002091;28;20293;-77
2021/04/21 04:54:04;;;;;;;132.50;64.73;;;11.60;99.90;;;;;;4970765;28;20821;-77
2021/04/21 04:56:36;;;;;;;132.53;63.63;;;11.60;99.90;;;;;;4973081;28;20263;-77
2021/04/21 04:59:04;;;;;;;129.10;63.50;;;11.50;99.90;;;;;;4970830;28;20196;-77
2021/04/21 05:01:46;;;;;;;129.03;62.97;;;11.50;99.90;;;;;;4972535;28;20187;-77
2021/04/21 05:04:14;;;;;;;122.37;61.90;;;11.40;99.90;;;;;;4970127;28;20195;-78
2021/04/21 05:06:48;;;;;;;129.17;60.90;;;11.30;99.90;;;;;;4970582;28;20289;-77
2021/04/21 05:09:18;;;;;;;125.30;61.70;;;11.40;99.90;;;;;;4987268;28;20201;-77
2021/04/21 05:11:45;;;;;;;122.63;62.47;;;11.50;99.90;;;;;;4972021;28;20216;-77
2021/04/21 05:14:16;;;;;;;125.43;62.83;;;11.60;99.90;;;;;;4970790;28;20194;-76
2021/04/21 05:16:56;;;;;;;123.93;61.70;;;11.70;99.90;;;;;;4970764;28;20312;-78
2021/04/21 05:19:28;;;;;;;126.17;62.77;;;11.90;99.90;;;;;;5002620;28;20187;-77
2021/04/21 05:22:35;;;;;;;126.60;60.73;;;12.00;99.90;;;;;;4985289;28;20599;-77
2021/04/21 05:25:25;;;;;;;127.77;60.83;;;12.00;99.90;;;;;;4972056;28;20189;-77
2021/04/21 05:28:14;;;;;;;121.33;60.33;;;11.90;99.90;;;;;;5000391;28;20685;-77
2021/04/21 05:31:12;;;;;;;126.17;60.80;;;11.90;99.90;;;;;;4950369;28;20222;-78
2021/04/21 05:34:17;;;;;;;120.23;59.43;;;11.90;99.90;;;;;;4969103;28;20659;-77
2021/04/21 05:37:20;;;;;;;126.73;59.87;;;12.10;99.90;;;;;;4969386;28;20270;-75
2021/04/21 05:40:23;;;;;;;127.33;63.60;;;12.20;99.90;;;;;;4998645;28;20295;-77
2021/04/21 05:43:21;;;;;;;122.37;60.67;;;12.20;99.90;;;;;;4983584;28;20180;-76
2021/04/21 05:46:09;;;;;;;123.90;60.87;;;12.20;99.90;;;;;;5015623;28;20202;-76
2021/04/21 05:48:56;;;;;;;118.10;60.33;;;12.30;99.90;;;;;;4970579;28;20731;-77
2021/04/21 05:51:59;;;;;;;119.50;60.27;;;12.40;99.90;;;;;;4967943;28;20241;-76
2021/04/21 05:54:35;;;;;;;116.57;58.80;;;12.40;99.90;;;;;;5002838;28;20275;-76
2021/04/21 05:57:27;;;;;;;128.23;59.07;;;12.50;99.90;;;;;;4984582;28;20192;-76
2021/04/21 05:59:55;;;;;;;115.00;56.97;;;12.70;99.90;;;;;;4970282;28;20189;-76
2021/04/21 06:02:25;;;;;;;116.83;58.20;;;12.70;99.90;;;;;;4968972;28;20209;-76
2021/04/21 06:05:07;;;;;;;110.83;58.40;;;12.60;99.90;;;;;;4985476;28;20628;-76
2021/04/21 06:07:33;;;;;;;117.97;61.90;;;12.50;99.90;;;;;;4971630;28;20662;-77
2021/04/21 06:09:58;;;;;;;117.77;62.43;;;12.50;99.90;;;;;;4967994;28;20295;-76
2021/04/21 06:12:24;;;;;;;117.80;59.67;;;12.70;99.90;;;;;;4970491;28;20565;-76
2021/04/21 06:14:55;;;;;;;134.40;59.03;;;12.90;99.90;;;;;;4970307;28;20196;-76
2021/04/21 06:17:25;;;;;;;122.40;57.53;;;13.20;99.90;;;;;;4970761;28;20252;-76
2021/04/21 06:19:52;;;;;;;152.07;59.10;;;13.30;99.90;;;;;;4972661;28;20182;-76
2021/04/21 06:22:30;;;;;;;149.47;59.73;;;13.40;99.90;;;;;;4969401;28;20240;-76
2021/04/21 06:25:15;;;;;;;144.67;58.17;;;13.20;99.90;;;;;;4971260;28;20561;-76
2021/04/21 06:27:41;;;;;;;134.57;55.90;;;13.30;99.90;;;;;;4984667;28;20201;-76
2021/04/21 06:30:09;;;;;;;137.83;56.07;;;13.20;99.90;;;;;;4984958;28;20257;-76
2021/04/21 06:32:37;;;;;;;134.10;58.53;;;13.30;99.90;;;;;;4969253;28;20532;-76
2021/04/21 06:35:08;;;;;;;126.43;54.33;;;13.50;99.90;;;;;;4968662;28;20225;-76
2021/04/21 06:37:36;;;;;;;124.43;53.90;;;13.70;99.90;;;;;;5001405;28;20190;-76
2021/04/21 06:40:05;;;;;;;115.50;51.47;;;13.80;99.90;;;;;;4967758;28;20364;-76
2021/04/21 06:42:31;;;;;;;112.80;51.07;;;13.90;99.90;;;;;;4969544;28;20658;-76
2021/04/21 06:44:57;;;;;;;99.40;49.33;;;14.10;99.90;;;;;;4969125;28;20242;-76
2021/04/21 06:47:25;;;;;;;104.63;49.20;;;14.40;99.90;;;;;;4970470;28;20586;-76
2021/04/21 06:50:11;;;;;;;102.20;45.93;;;14.70;99.90;;;;;;4972761;28;20190;-76
2021/04/21 06:52:40;;;;;;;82.37;45.27;;;15.00;99.90;;;;;;4973184;28;20593;-76
2021/04/21 06:55:08;;;;;;;83.43;43.20;;;15.20;99.90;;;;;;4988801;28;20199;-76
2021/04/21 06:57:35;;;;;;;90.63;44.73;;;15.00;99.90;;;;;;4972678;28;20202;-77
2021/04/21 07:00:15;;;;;;;78.87;43.77;;;15.20;99.90;;;;;;4973463;28;20204;-76
2021/04/21 07:02:53;;;;;;;78.47;43.40;;;15.60;99.90;;;;;;4973652;28;20258;-76
2021/04/21 07:05:51;;;;;;;77.13;42.07;;;15.90;99.90;;;;;;4972279;28;20205;-76
2021/04/21 07:08:28;;;;;;;72.50;40.27;;;16.30;99.90;;;;;;4994293;28;20199;-76
2021/04/21 07:10:57;;;;;;;72.47;41.17;;;16.80;99.90;;;;;;4970333;28;20261;-76
2021/04/21 07:13:25;;;;;;;67.57;38.13;;;17.90;99.90;;;;;;4973372;28;20189;-76
2021/04/21 07:15:55;;;;;;;63.43;35.57;;;18.60;99.90;;;;;;4973105;28;20196;-76
2021/04/21 07:18:26;;;;;;;57.50;34.47;;;19.10;99.90;;;;;;4972929;28;20235;-76
2021/04/21 07:20:55;;;;;;;58.47;34.80;;;20.70;99.90;;;;;;4974105;28;20286;-76
2021/04/21 07:23:22;;;;;;;62.60;34.73;;;21.80;99.90;;;;;;4972972;28;20272;-77
2021/04/21 07:25:49;;;;;;;56.90;34.70;;;22.30;99.30;;;;;;4973365;28;20196;-77
2021/04/21 07:28:16;;;;;;;61.33;32.40;;;22.50;96.80;;;;;;4973367;28;20228;-76
2021/04/21 07:30:43;;;;;;;52.47;32.97;;;21.80;94.50;;;;;;4972940;28;20203;-77
2021/04/21 07:33:09;;;;;;;53.53;30.73;;;21.30;94.60;;;;;;4971722;28;20561;-77
2021/04/21 07:35:35;;;;;;;47.10;28.93;;;20.60;92.90;;;;;;4971996;28;20254;-76
2021/04/21 07:38:15;;;;;;;47.20;28.60;;;20.00;93.20;;;;;;4973041;28;20191;-76
2021/04/21 07:40:40;;;;;;;47.87;29.93;;;20.30;94.00;;;;;;4972889;28;20293;-76
2021/04/21 07:43:14;;;;;;;43.43;28.53;;;20.60;92.00;;;;;;4972284;28;20277;-76
2021/04/21 07:45:44;;;;;;;44.00;27.37;;;20.40;92.30;;;;;;4972480;28;20199;-76
2021/04/21 07:48:34;;;;;;;47.93;27.27;;;20.20;92.30;;;;;;4972552;28;20184;-76
2021/04/21 07:51:26;;;;;;;48.57;29.63;;;20.10;92.10;;;;;;4987292;28;20237;-76
2021/04/21 07:53:58;;;;;;;50.27;27.47;;;20.20;91.50;;;;;;4987213;28;20189;-76
2021/04/21 07:56:34;;;;;;;43.40;25.37;;;20.90;90.90;;;;;;4963331;28;20189;-76
2021/04/21 07:59:13;;;;;;;44.10;24.93;;;20.30;91.40;;;;;;4971441;28;21363;-76
2021/04/21 08:01:39;;;;;;;46.50;26.27;;;19.70;90.80;;;;;;4972861;28;20656;-76
2021/04/21 08:04:22;;;;;;;43.00;25.17;;;19.50;92.20;;;;;;4971414;28;20201;-76
2021/04/21 08:06:51;;;;;;;40.60;22.47;;;19.10;91.60;;;;;;4972451;28;20669;-76
2021/04/21 08:09:17;;;;;;;41.13;23.20;;;18.90;91.00;;;;;;4975248;28;20277;-76
2021/04/21 08:11:44;;;;;;;38.83;21.67;;;18.90;91.40;;;;;;4969872;28;20215;-76
2021/04/21 08:14:11;;;;;;;37.70;21.77;;;19.00;88.90;;;;;;4971915;28;20187;-74
2021/04/21 08:16:37;;;;;;;34.07;20.17;;;19.30;90.40;;;;;;4970851;28;20175;-75
2021/04/21 08:19:18;;;;;;;34.07;19.80;;;19.50;88.40;;;;;;4971975;28;20209;-75
2021/04/21 08:21:46;;;;;;;36.43;20.93;;;19.90;86.50;;;;;;4970006;28;20187;-74
2021/04/21 08:24:15;;;;;;;39.17;20.57;;;21.00;86.90;;;;;;4972242;28;20205;-76
2021/04/21 08:26:42;;;;;;;36.63;20.90;;;22.10;79.00;;;;;;4971820;28;20210;-76
2021/04/21 08:29:11;;;;;;;36.23;21.97;;;22.60;78.30;;;;;;4971307;28;20291;-76
2021/04/21 08:31:38;;;;;;;39.83;20.70;;;23.30;76.00;;;;;;4970960;28;20237;-76
2021/04/21 08:34:04;;;;;;;42.63;22.70;;;24.30;72.20;;;;;;4977558;28;20251;-75
2021/04/21 08:36:30;;;;;;;34.43;21.13;;;24.80;67.90;;;;;;4970860;28;20200;-76
2021/04/21 08:38:56;;;;;;;34.47;21.37;;;24.20;67.60;;;;;;4971097;28;20653;-76
2021/04/21 08:41:23;;;;;;;32.93;21.17;;;24.60;68.60;;;;;;4970732;28;20210;-76
2021/04/21 08:43:50;;;;;;;35.93;21.33;;;25.90;65.20;;;;;;4985288;28;20681;-75
2021/04/21 08:46:17;;;;;;;37.40;21.77;;;27.10;59.70;;;;;;4968494;28;20274;-76
2021/04/21 08:48:44;;;;;;;36.33;21.50;;;26.10;60.00;;;;;;5001862;28;20206;-75
2021/04/21 08:51:15;;;;;;;34.90;21.83;;;25.50;60.30;;;;;;4972115;28;20834;-76
2021/04/21 08:53:46;;;;;;;36.90;21.03;;;25.70;60.80;;;;;;4969422;28;20598;-76
2021/04/21 08:56:16;;;;;;;32.30;19.80;;;25.40;61.60;;;;;;4972295;28;20598;-76
2021/04/21 08:58:43;;;;;;;39.20;20.70;;;24.80;59.90;;;;;;4984964;28;20278;-75
2021/04/21 09:01:10;;;;;;;33.07;19.37;;;25.20;61.40;;;;;;4971317;28;20661;-75
2021/04/21 09:03:36;;;;;;;31.37;20.33;;;24.40;61.70;;;;;;4971633;28;20550;-76
2021/04/21 09:06:04;;;;;;;31.70;19.67;;;24.00;61.60;;;;;;4971003;28;20278;-76
2021/04/21 09:08:30;;;;;;;33.03;20.83;;;23.40;63.40;;;;;;5003535;28;20190;-76
2021/04/21 09:10:56;;;;;;;34.97;22.30;;;23.00;66.40;;;;;;4970182;28;20564;-76
2021/04/21 09:13:22;;;;;;;35.37;22.17;;;22.90;67.80;;;;;;4970858;28;20198;-76
2021/04/21 09:15:48;;;;;;;39.03;22.53;;;23.10;67.70;;;;;;4970378;28;20197;-76
2021/04/21 09:18:13;;;;;;;37.90;23.53;;;23.70;68.10;;;;;;4970449;28;20190;-75
2021/04/21 09:20:47;;;;;;;40.17;23.67;;;24.40;68.30;;;;;;4972172;28;20190;-76
2021/04/21 09:23:16;;;;;;;45.83;26.00;;;24.60;68.90;;;;;;4969590;28;20225;-75
2021/04/21 09:25:44;;;;;;;39.90;25.57;;;24.80;68.50;;;;;;5004736;28;20190;-76
2021/04/21 09:28:11;;;;;;;40.87;25.60;;;24.90;67.60;;;;;;4970767;28;20210;-76
2021/04/21 09:30:40;;;;;;;43.37;25.40;;;25.10;66.30;;;;;;4970659;28;20206;-76
2021/04/21 09:33:07;;;;;;;41.80;24.70;;;24.90;66.50;;;;;;4968835;28;20654;-75
2021/04/21 09:35:36;;;;;;;38.77;25.03;;;25.00;65.90;;;;;;4969367;28;20246;-75
2021/04/21 09:38:22;;;;;;;40.53;25.90;;;24.80;65.70;;;;;;5002446;28;20941;-75
2021/04/21 09:40:54;;;;;;;42.23;26.70;;;24.60;66.80;;;;;;4981450;28;20584;-75
2021/04/21 09:43:28;;;;;;;39.47;24.83;;;25.00;65.90;;;;;;5001734;28;20392;-76
2021/04/21 09:46:03;;;;;;;39.80;25.57;;;24.40;67.40;;;;;;4969783;28;20215;-76
2021/04/21 09:48:35;;;;;;;42.47;25.40;;;24.40;68.20;;;;;;4971165;28;20633;-76
2021/04/21 09:51:14;;;;;;;41.20;25.80;;;24.50;66.60;;;;;;4979165;28;20234;-76
2021/04/21 09:53:46;;;;;;;33.97;23.27;;;25.20;65.10;;;;;;4969939;28;20234;-76
2021/04/21 09:56:22;;;;;;;37.97;22.57;;;24.40;64.40;;;;;;4970255;28;20187;-76
2021/04/21 09:58:52;;;;;;;37.00;24.60;;;24.40;67.20;;;;;;4984350;28;20645;-75
2021/04/21 10:01:32;;;;;;;33.37;22.33;;;24.10;67.60;;;;;;5002800;28;20190;-75
2021/04/21 10:04:07;;;;;;;33.37;21.50;;;24.90;64.60;;;;;;4969080;28;20195;-76
2021/04/21 10:06:33;;;;;;;33.90;21.67;;;24.70;63.20;;;;;;4970607;28;20977;-76
2021/04/21 10:08:59;;;;;;;35.53;21.87;;;24.20;63.40;;;;;;4987092;28;20654;-75
2021/04/21 10:11:25;;;;;;;36.63;21.67;;;23.90;63.10;;;;;;4969179;28;20211;-76
2021/04/21 10:13:52;;;;;;;30.57;21.53;;;23.60;65.30;;;;;;4970872;28;20171;-75
2021/04/21 10:16:19;;;;;;;34.23;20.30;;;23.20;67.60;;;;;;4970261;28;20551;-76
2021/04/21 10:18:45;;;;;;;36.70;20.27;;;24.50;65.50;;;;;;4969833;28;20765;-75
2021/04/21 10:21:14;;;;;;;34.43;19.73;;;25.10;61.70;;;;;;4971330;28;20315;-75
2021/04/21 10:23:42;;;;;;;32.50;20.70;;;25.00;61.90;;;;;;4970397;28;20191;-76
2021/04/21 10:26:10;;;;;;;32.37;20.10;;;24.70;61.90;;;;;;4970661;28;20194;-75
2021/04/21 10:28:37;;;;;;;32.27;20.83;;;25.20;62.40;;;;;;4972720;28;20190;-75
2021/04/21 10:31:06;;;;;;;32.10;20.40;;;25.20;63.60;;;;;;4973359;28;20615;-77
2021/04/21 10:33:33;;;;;;;31.97;20.57;;;25.00;61.20;;;;;;4984783;28;20187;-76
2021/04/21 10:35:59;;;;;;;32.43;21.97;;;24.90;64.50;;;;;;4989516;28;20195;-75
2021/04/21 10:38:27;;;;;;;35.33;21.93;;;24.80;67.10;;;;;;4973570;28;20206;-76
2021/04/21 10:41:32;;;;;;;35.23;23.67;;;24.50;62.70;;;;;;4972249;28;20650;-76
2021/04/21 10:44:16;;;;;;;35.10;23.07;;;24.10;64.40;;;;;;4973068;28;20179;-76
2021/04/21 10:46:58;;;;;;;35.57;24.43;;;24.10;67.20;;;;;;4968517;28;20200;-76
2021/04/21 10:49:50;;;;;;;36.17;23.37;;;24.70;66.70;;;;;;4985977;28;20198;-76
2021/04/21 10:52:23;;;;;;;30.83;22.80;;;25.30;64.80;;;;;;5000645;28;20686;-75
2021/04/21 10:54:51;;;;;;;32.83;23.50;;;25.00;63.70;;;;;;4972492;28;20183;-74
2021/04/21 10:57:24;;;;;;;36.83;23.30;;;25.00;62.00;;;;;;4974748;28;20218;-75
2021/04/21 11:00:16;;;;;;;35.40;23.37;;;25.20;65.00;;;;;;4972140;28;20189;-75
2021/04/21 11:02:41;;;;;;;35.67;23.90;;;25.30;64.70;;;;;;5003096;28;20646;-75
2021/04/21 11:05:09;;;;;;;33.73;24.40;;;25.80;62.60;;;;;;4987874;28;20222;-75
2021/04/21 11:07:39;;;;;;;38.03;25.43;;;26.00;64.10;;;;;;5004683;28;20183;-74
2021/04/21 11:10:07;;;;;;;31.37;23.83;;;25.40;63.10;;;;;;4972816;28;20219;-74
2021/04/21 11:12:50;;;;;;;37.17;23.03;;;25.40;66.50;;;;;;4971707;28;20623;-75
2021/04/21 11:15:41;;;;;;;37.50;23.10;;;25.60;63.20;;;;;;4970513;28;20187;-74
2021/04/21 11:18:07;;;;;;;38.23;23.57;;;24.60;64.70;;;;;;5002649;28;20207;-74
2021/04/21 11:20:48;;;;;;;39.73;25.97;;;24.50;66.50;;;;;;4971765;28;20781;-74
2021/04/21 11:26:23;;;;;;;38.30;24.73;;;25.40;64.90;;;;;;4973194;28;20205;-74
2021/04/21 11:29:14;;;;;;;42.03;25.43;;;25.50;63.10;;;;;;4970963;28;21423;-74
2021/04/21 11:31:48;;;;;;;36.87;25.13;;;25.50;64.90;;;;;;5000259;28;20203;-74
2021/04/21 11:34:24;;;;;;;37.80;25.33;;;25.30;62.30;;;;;;4966545;28;20274;-73
2021/04/21 11:36:55;;;;;;;38.13;25.23;;;25.20;63.60;;;;;;5002150;28;20187;-73
2021/04/21 11:39:50;;;;;;;38.47;25.53;;;24.60;64.80;;;;;;4970959;28;20195;-73
2021/04/21 11:42:28;;;;;;;37.77;26.13;;;24.00;67.30;;;;;;5002780;28;20218;-73
2021/04/21 11:45:03;;;;;;;37.40;28.53;;;24.40;63.70;;;;;;4971138;28;20187;-73
2021/04/21 11:47:42;;;;;;;36.23;24.50;;;24.80;62.10;;;;;;4969803;28;20206;-73
2021/04/21 11:50:18;;;;;;;35.80;25.17;;;24.40;65.90;;;;;;4972273;28;20217;-74
2021/04/21 11:52:56;;;;;;;35.03;26.20;;;24.40;65.30;;;;;;4970405;28;20552;-73
2021/04/21 11:55:37;;;;;;;38.33;27.53;;;24.30;62.80;;;;;;5002632;28;20194;-74
2021/04/21 11:58:31;;;;;;;35.03;25.33;;;24.10;63.40;;;;;;4969021;28;20187;-74
2021/04/21 12:01:02;;;;;;;35.73;25.63;;;24.10;64.50;;;;;;4971329;28;20922;-74
2021/04/21 12:03:39;;;;;;;36.60;25.53;;;24.20;66.50;;;;;;4972049;28;20191;-74
2021/04/21 12:06:08;;;;;;;39.43;26.17;;;24.30;64.10;;;;;;5019944;28;20199;-74
2021/04/21 12:08:36;;;;;;;34.97;25.53;;;24.30;63.50;;;;;;4970546;28;20658;-74
2021/04/21 12:11:04;;;;;;;34.53;24.60;;;24.30;63.20;;;;;;4970131;28;20684;-73
2021/04/21 12:13:39;;;;;;;35.63;24.43;;;24.90;63.20;;;;;;4970880;28;20195;-74
2021/04/21 12:16:20;;;;;;;37.10;25.50;;;25.20;63.40;;;;;;5002171;28;20222;-74
2021/04/21 12:18:50;;;;;;;37.57;25.80;;;25.20;61.50;;;;;;4982772;28;20214;-73
2021/04/21 12:21:16;;;;;;;38.50;27.10;;;24.30;61.10;;;;;;4984977;28;20199;-73
2021/04/21 12:24:13;;;;;;;36.23;26.93;;;23.30;62.90;;;;;;4965510;28;20191;-73
2021/04/21 12:26:41;;;;;;;40.30;27.70;;;22.40;67.90;;;;;;4965536;28;20233;-73
2021/04/21 12:29:18;;;;;;;44.73;27.03;;;22.50;67.80;;;;;;4970717;28;20183;-73
2021/04/21 12:31:45;;;;;;;38.70;26.63;;;22.70;69.20;;;;;;4970700;28;20752;-73
2021/04/21 12:34:20;;;;;;;41.47;27.60;;;22.60;67.10;;;;;;4970184;28;20219;-73
2021/04/21 12:36:47;;;;;;;43.23;27.33;;;22.30;69.00;;;;;;4970206;28;20190;-73
2021/04/21 12:39:25;;;;;;;38.83;28.80;;;21.90;69.00;;;;;;4970208;28;20227;-75
2021/04/21 12:41:54;;;;;;;40.27;27.60;;;21.90;69.60;;;;;;4970875;28;20225;-77
2021/04/21 12:44:26;;;;;;;37.63;28.30;;;21.60;70.00;;;;;;4996738;28;20654;-75
2021/04/21 12:46:54;;;;;;;41.73;29.00;;;21.50;69.90;;;;;;4970382;28;20195;-75
2021/04/21 12:49:41;;;;;;;46.33;31.60;;;21.50;71.90;;;;;;4975641;28;20207;-74
2021/04/21 12:52:12;;;;;;;43.10;31.23;;;21.20;72.20;;;;;;4969225;28;20220;-74
2021/04/21 12:54:41;;;;;;;47.30;30.60;;;20.90;73.30;;;;;;4964337;28;20226;-75
2021/04/21 12:57:09;;;;;;;47.93;30.47;;;21.00;75.30;;;;;;4969768;28;20229;-74
2021/04/21 12:59:38;;;;;;;41.57;30.17;;;20.90;74.40;;;;;;4970486;28;20666;-75